Time;durP1;ratioP1;P1;durP2;ratioP2;P2;SDS_P1;SDS_P2;PMS_P1;PMS_P2;Temp;Humidity;BMP_temperature;BMP_pressure;BME280_temperature;BME280_humidity;BME280_pressure;Samples;Min_cycle;Max_cycle;Signal;HPM_P1;HPM_P2
2022/09/17 00:01:59;;;;;;;1.95;1.60;;;11.10;99.90;;;;;;20740800;28;20561;-60
2022/09/17 00:12:03;;;;;;;8.10;1.55;;;11.00;99.90;;;;;;20724535;28;20033;-47
2022/09/17 00:22:05;;;;;;;1.52;1.08;;;11.00;99.90;;;;;;20723779;28;20084;-47
2022/09/17 00:32:08;;;;;;;1.67;0.70;;;10.60;99.90;;;;;;20739438;28;20395;-46
2022/09/17 00:42:15;;;;;;;12.50;1.80;;;10.50;99.90;;;;;;20739312;28;20034;-50
2022/09/17 00:52:27;;;;;;;2.22;0.88;;;10.40;99.90;;;;;;20628485;28;20050;-47
2022/09/17 01:02:30;;;;;;;2.33;1.00;;;10.10;99.90;;;;;;20684558;28;20100;-47
2022/09/17 01:12:52;;;;;;;3.58;0.90;;;9.90;99.90;;;;;;20721977;28;20281;-47
2022/09/17 01:23:10;;;;;;;2.17;0.75;;;9.70;99.90;;;;;;20737818;28;20395;-49
2022/09/17 01:33:13;;;;;;;7.88;0.85;;;9.50;99.90;;;;;;20751854;28;20033;-49
2022/09/17 01:43:37;;;;;;;1.50;0.93;;;9.50;99.90;;;;;;20751890;28;20081;-60
2022/09/17 01:54:14;;;;;;;1.08;0.60;;;9.20;99.90;;;;;;20750758;28;20065;-59
2022/09/17 02:04:26;;;;;;;3.20;0.80;;;9.20;99.90;;;;;;20723330;28;20120;-47
2022/09/17 02:14:43;;;;;;;0.63;0.50;;;9.30;99.90;;;;;;20749209;28;20170;-60
2022/09/17 02:25:02;;;;;;;2.78;0.80;;;9.30;99.90;;;;;;20748658;28;20100;-59
2022/09/17 02:35:05;;;;;;;0.57;0.40;;;9.40;99.90;;;;;;20747290;28;20034;-59
2022/09/17 02:45:37;;;;;;;0.82;0.20;;;9.40;99.90;;;;;;20729876;28;20053;-45
2022/09/17 02:56:17;;;;;;;0.30;0.20;;;9.30;99.90;;;;;;20745939;28;20458;-46
2022/09/17 03:06:21;;;;;;;0.28;0.10;;;9.00;99.90;;;;;;20745358;28;20034;-49
2022/09/17 03:16:25;;;;;;;0.65;0.10;;;8.80;99.90;;;;;;20744572;28;20546;-59
2022/09/17 03:26:28;;;;;;;0.30;0.20;;;8.60;99.90;;;;;;20727614;28;20502;-45
2022/09/17 03:36:31;;;;;;;0.50;0.30;;;8.40;99.90;;;;;;20726740;28;20034;-47
2022/09/17 03:46:33;;;;;;;0.47;0.10;;;8.30;99.90;;;;;;20709336;28;20042;-46
2022/09/17 03:56:36;;;;;;;0.30;0.20;;;8.00;99.90;;;;;;20717760;28;20085;-46
2022/09/17 04:06:38;;;;;;;0.30;0.10;;;7.70;99.90;;;;;;20724999;28;20042;-46
2022/09/17 04:16:40;;;;;;;1.40;0.10;;;7.60;99.90;;;;;;20740335;28;20081;-45
2022/09/17 04:26:43;;;;;;;0.40;0.15;;;7.60;99.90;;;;;;20723963;28;20041;-58
2022/09/17 04:36:46;;;;;;;0.10;0.10;;;7.40;99.90;;;;;;20723345;28;20553;-45
2022/09/17 04:46:48;;;;;;;0.57;0.20;;;7.20;99.90;;;;;;20722883;28;20045;-47
2022/09/17 04:56:51;;;;;;;0.43;0.10;;;7.10;99.90;;;;;;20722627;28;20050;-45
2022/09/17 05:06:53;;;;;;;0.22;0.10;;;6.80;99.90;;;;;;20752016;28;20077;-48
2022/09/17 05:16:56;;;;;;;0.10;0.08;;;6.50;99.90;;;;;;20737425;28;20685;-60
2022/09/17 05:26:58;;;;;;;3.40;0.10;;;6.20;99.90;;;;;;20737008;28;20030;-48
2022/09/17 05:37:01;;;;;;;1.30;0.00;;;6.00;99.90;;;;;;20753546;28;20042;-61
2022/09/17 05:47:04;;;;;;;1.30;0.00;;;5.70;99.90;;;;;;20734869;28;20065;-48
2022/09/17 05:57:06;;;;;;;0.03;0.00;;;5.40;99.90;;;;;;20718634;28;20038;-48
2022/09/17 06:07:09;;;;;;;0.40;0.00;;;5.40;99.90;;;;;;20750192;28;20034;-48
2022/09/17 06:17:11;;;;;;;0.10;0.00;;;5.00;99.90;;;;;;20732950;28;20038;-51
2022/09/17 06:27:14;;;;;;;3.08;0.30;;;5.00;99.90;;;;;;20748855;28;20673;-47
2022/09/17 06:37:17;;;;;;;1.27;0.00;;;5.00;99.90;;;;;;20731427;28;20096;-46
2022/09/17 06:47:19;;;;;;;0.38;0.10;;;4.90;99.90;;;;;;20746756;28;20089;-48
2022/09/17 06:57:22;;;;;;;0.00;0.00;;;4.80;99.90;;;;;;20746562;28;20042;-47
2022/09/17 07:07:24;;;;;;;0.30;0.00;;;4.80;99.90;;;;;;20745542;28;20092;-48
2022/09/17 07:17:28;;;;;;;0.20;0.00;;;4.80;99.90;;;;;;20744453;28;20410;-48
2022/09/17 07:27:31;;;;;;;0.43;0.05;;;4.70;99.90;;;;;;20743623;28;20061;-47
2022/09/17 07:37:34;;;;;;;1.13;0.20;;;4.70;99.90;;;;;;20743214;28;20034;-47
2022/09/17 07:47:40;;;;;;;0.95;0.20;;;4.70;99.90;;;;;;20741797;28;20054;-46
2022/09/17 07:57:43;;;;;;;0.20;0.00;;;4.70;99.90;;;;;;20738883;28;20030;-48
2022/09/17 08:07:49;;;;;;;0.10;0.10;;;4.90;99.90;;;;;;20738775;28;20128;-49
2022/09/17 08:17:52;;;;;;;0.20;0.00;;;5.10;99.90;;;;;;20737301;28;20037;-48
2022/09/17 08:27:55;;;;;;;0.17;0.10;;;6.10;99.90;;;;;;20735621;28;20034;-48
2022/09/17 08:37:58;;;;;;;0.30;0.10;;;7.90;99.90;;;;;;20713783;28;20042;-47
2022/09/17 08:48:07;;;;;;;1.17;0.00;;;8.10;99.90;;;;;;20657550;28;1350875;-45
2022/09/17 08:58:22;;;;;;;0.30;0.00;;;8.30;99.90;;;;;;20739410;28;20061;-45
2022/09/17 09:08:39;;;;;;;0.20;0.00;;;8.50;99.90;;;;;;20722349;28;20065;-46
2022/09/17 09:18:42;;;;;;;0.10;0.10;;;8.90;99.90;;;;;;20721918;28;20037;-46
2022/09/17 09:29:04;;;;;;;0.50;0.10;;;9.40;99.90;;;;;;20738887;28;20084;-46
2022/09/17 09:39:19;;;;;;;0.13;0.00;;;10.00;99.90;;;;;;20705095;28;20037;-47
2022/09/17 09:49:33;;;;;;;2.17;0.10;;;9.90;99.90;;;;;;20743373;28;20053;-50
2022/09/17 09:59:40;;;;;;;0.55;0.00;;;10.20;99.90;;;;;;20734710;28;20030;-48
2022/09/17 10:09:45;;;;;;;0.32;0.00;;;10.70;99.90;;;;;;20733528;28;20093;-48
2022/09/17 10:20:13;;;;;;;0.47;0.10;;;11.00;99.90;;;;;;20732929;28;20042;-46
2022/09/17 10:30:18;;;;;;;1.55;0.10;;;11.40;99.90;;;;;;20732044;28;20104;-47
2022/09/17 10:40:27;;;;;;;0.20;0.08;;;11.80;99.90;;;;;;20731282;28;20077;-47
2022/09/17 10:50:33;;;;;;;0.10;0.00;;;11.30;99.90;;;;;;20746597;28;20097;-47
2022/09/17 11:01:12;;;;;;;0.30;0.10;;;11.60;99.90;;;;;;20745129;28;20097;-46
2022/09/17 11:11:23;;;;;;;0.10;0.10;;;11.80;99.90;;;;;;20746372;28;20041;-46
2022/09/17 11:21:39;;;;;;;0.75;0.10;;;13.00;99.90;;;;;;20744460;28;20038;-48
2022/09/17 11:32:08;;;;;;;0.75;0.13;;;14.60;99.90;;;;;;20743678;28;20033;-59
2022/09/17 11:42:18;;;;;;;0.22;0.20;;;14.90;99.90;;;;;;20743106;28;20030;-47
2022/09/17 11:52:27;;;;;;;0.43;0.20;;;15.00;99.90;;;;;;20741828;28;20461;-48
2022/09/17 12:02:50;;;;;;;1.70;0.30;;;13.70;99.90;;;;;;20725232;28;20034;-47
2022/09/17 12:13:02;;;;;;;0.65;0.20;;;15.20;99.90;;;;;;20724653;28;20037;-59
2022/09/17 12:23:12;;;;;;;0.80;0.40;;;15.30;99.90;;;;;;20724192;28;20479;-48
2022/09/17 12:33:30;;;;;;;;;;;13.60;99.90;;;;;;20740469;28;20038;-47
2022/09/17 12:43:54;;;;;;;0.80;0.40;;;12.90;99.90;;;;;;20723452;28;19910;-59
2022/09/17 12:54:14;;;;;;;1.02;0.63;;;12.70;99.90;;;;;;20722463;28;20473;-59
2022/09/17 13:04:40;;;;;;;;;;;11.80;99.90;;;;;;20722393;28;20403;-48
2022/09/17 13:14:51;;;;;;;1.10;1.00;;;11.30;99.90;;;;;;20714684;28;20341;-59
2022/09/17 13:25:10;;;;;;;1.27;1.17;;;10.90;99.90;;;;;;20730024;28;20089;-59
2022/09/17 13:35:15;;;;;;;1.25;1.05;;;10.70;99.90;;;;;;20752560;28;20038;-47
2022/09/17 13:45:21;;;;;;;1.45;1.30;;;10.60;99.90;;;;;;20752041;28;20442;-48
2022/09/17 13:55:35;;;;;;;2.53;1.05;;;10.40;99.90;;;;;;20751315;28;20073;-59
2022/09/17 14:05:37;;;;;;;1.73;1.52;;;10.20;99.90;;;;;;20733997;28;20033;-58
2022/09/17 14:15:40;;;;;;;2.58;2.13;;;9.80;99.90;;;;;;20733065;28;20038;-50
2022/09/17 14:25:53;;;;;;;2.25;1.83;;;9.50;99.90;;;;;;20748453;28;20042;-48
2022/09/17 14:36:07;;;;;;;3.20;2.90;;;9.30;99.90;;;;;;20747866;28;20042;-47
2022/09/17 14:46:24;;;;;;;25.70;2.80;;;9.20;99.90;;;;;;20746619;28;20034;-58
2022/09/17 14:56:26;;;;;;;6.20;2.22;;;9.10;99.90;;;;;;20745981;28;20094;-47
2022/09/17 15:06:29;;;;;;;16.92;3.88;;;9.30;99.90;;;;;;20727099;28;20057;-47
2022/09/17 15:16:35;;;;;;;30.50;3.22;;;9.40;99.90;;;;;;20726088;28;20038;-46
2022/09/17 15:26:41;;;;;;;3.17;2.88;;;9.30;99.90;;;;;;20743577;28;20038;-51
2022/09/17 15:37:23;;;;;;;1.83;1.50;;;9.40;99.90;;;;;;20726462;28;20034;-49
2022/09/17 15:47:44;;;;;;;1.48;1.38;;;9.50;99.90;;;;;;20707809;28;20038;-48
2022/09/17 15:57:47;;;;;;;4.47;3.13;;;9.40;99.90;;;;;;20741831;28;20029;-46
2022/09/17 16:07:50;;;;;;;4.05;3.20;;;9.10;99.90;;;;;;20725812;28;20549;-48
2022/09/17 16:17:52;;;;;;;3.00;2.60;;;9.20;99.90;;;;;;20708070;28;20038;-48
2022/09/17 16:28:21;;;;;;;3.40;2.50;;;8.80;99.90;;;;;;20724101;28;20041;-51
2022/09/17 16:38:25;;;;;;;2.97;2.67;;;8.20;99.90;;;;;;20719724;28;20042;-58
2022/09/17 16:48:27;;;;;;;3.30;2.92;;;8.00;99.90;;;;;;20739311;28;20054;-47
2022/09/17 16:58:31;;;;;;;2.40;2.20;;;7.90;99.90;;;;;;20729349;28;20042;-59
2022/09/17 17:08:33;;;;;;;1.73;1.60;;;7.50;99.90;;;;;;20754605;28;20030;-50
2022/09/17 17:18:36;;;;;;;0.65;0.60;;;7.10;99.90;;;;;;20752819;28;20039;-48
2022/09/17 17:28:39;;;;;;;3.25;1.10;;;6.50;99.90;;;;;;20753326;28;20065;-45
2022/09/17 17:38:41;;;;;;;2.05;1.85;;;6.00;99.90;;;;;;20752414;28;20111;-58
2022/09/17 17:48:44;;;;;;;2.42;1.50;;;6.00;99.90;;;;;;20751546;28;20467;-48
2022/09/17 17:58:53;;;;;;;0.82;0.77;;;5.80;99.90;;;;;;20734892;28;20457;-46
2022/09/17 18:08:55;;;;;;;0.65;0.30;;;5.30;99.90;;;;;;20750463;28;20454;-58
2022/09/17 18:18:58;;;;;;;0.60;0.10;;;5.20;99.90;;;;;;20733290;28;20135;-58
2022/09/17 18:29:00;;;;;;;0.40;0.20;;;5.10;99.90;;;;;;20732282;28;20030;-47
2022/09/17 18:39:06;;;;;;;0.52;0.32;;;4.80;99.90;;;;;;20731257;28;20037;-45
2022/09/17 18:49:08;;;;;;;1.15;0.32;;;4.70;99.90;;;;;;20745564;28;20054;-46
2022/09/17 18:59:11;;;;;;;1.85;0.30;;;4.60;99.90;;;;;;20728447;28;20046;-47
2022/09/17 19:09:13;;;;;;;1.10;0.47;;;4.60;99.90;;;;;;20728094;28;20037;-49
2022/09/17 19:19:16;;;;;;;0.50;0.30;;;4.60;99.90;;;;;;20709913;28;20068;-59
2022/09/17 19:29:18;;;;;;;0.90;0.52;;;4.70;99.90;;;;;;20742817;28;20049;-62
2022/09/17 19:39:21;;;;;;;0.73;0.30;;;4.90;99.90;;;;;;20710320;28;20037;-60
2022/09/17 19:49:23;;;;;;;0.88;0.40;;;4.90;99.90;;;;;;20692101;28;20072;-59
2022/09/17 19:59:26;;;;;;;1.95;0.20;;;4.80;99.90;;;;;;20722870;28;20091;-58
2022/09/17 20:09:29;;;;;;;1.10;0.90;;;4.70;99.90;;;;;;20722614;28;20129;-62
2022/09/17 20:19:32;;;;;;;1.70;1.38;;;4.80;99.90;;;;;;20701987;28;20474;-62
2022/09/17 20:29:34;;;;;;;2.25;1.55;;;5.00;99.90;;;;;;20721545;28;20090;-64
2022/09/17 20:39:36;;;;;;;2.92;1.17;;;5.10;99.90;;;;;;20721890;28;20034;-60
2022/09/17 20:49:39;;;;;;;1.50;1.13;;;5.20;99.90;;;;;;20721333;28;20053;-63
2022/09/17 20:59:58;;;;;;;0.98;0.70;;;5.10;99.90;;;;;;20690095;28;20038;-66
2022/09/17 21:10:01;;;;;;;0.63;0.50;;;5.00;99.90;;;;;;20737273;28;20091;-60
2022/09/17 21:20:05;;;;;;;1.00;0.47;;;4.90;99.90;;;;;;20719974;28;20056;-60
2022/09/17 21:30:08;;;;;;;0.30;0.30;;;4.70;99.90;;;;;;20734964;28;20029;-59
2022/09/17 21:40:10;;;;;;;1.58;0.20;;;4.70;99.90;;;;;;20719591;28;20034;-59
2022/09/17 21:50:13;;;;;;;0.50;0.30;;;5.10;99.90;;;;;;20733019;28;20520;-59
2022/09/17 22:00:18;;;;;;;0.90;0.35;;;5.10;99.90;;;;;;20734370;28;20046;-60
2022/09/17 22:10:20;;;;;;;1.38;0.70;;;5.20;99.90;;;;;;20733187;28;20056;-59
2022/09/17 22:20:24;;;;;;;0.70;0.35;;;5.10;99.90;;;;;;20732485;28;20080;-59
2022/09/17 22:30:26;;;;;;;0.60;0.38;;;4.90;99.90;;;;;;20714854;28;20042;-61
2022/09/17 22:40:29;;;;;;;0.30;0.10;;;4.70;99.90;;;;;;20730709;28;20041;-58
2022/09/17 22:50:31;;;;;;;3.13;0.10;;;5.50;99.90;;;;;;20750001;28;20444;-54
2022/09/17 23:00:34;;;;;;;0.10;0.10;;;4.70;99.90;;;;;;20744982;28;20037;-53
2022/09/17 23:10:37;;;;;;;0.10;0.05;;;4.30;99.90;;;;;;20729785;28;20033;-58
2022/09/17 23:20:40;;;;;;;0.57;0.08;;;4.00;99.90;;;;;;20727714;28;20037;-59
2022/09/17 23:30:42;;;;;;;0.35;0.00;;;3.90;99.90;;;;;;20743266;28;20038;-58
2022/09/17 23:40:44;;;;;;;0.40;0.10;;;3.70;99.90;;;;;;20726181;28;20486;-54
2022/09/17 23:50:47;;;;;;;0.00;0.00;;;3.60;99.90;;;;;;20741549;28;20506;-58
